Time;durP1;ratioP1;P1;durP2;ratioP2;P2;SDS_P1;SDS_P2;PMS_P1;PMS_P2;Temp;Humidity;BMP_temperature;BMP_pressure;BME280_temperature;BME280_humidity;BME280_pressure;Samples;Min_cycle;Max_cycle;Signal;HPM_P1;HPM_P2
2022/07/07 00:01:52;;;;;;;2.70;2.55;;;;;;;;;;5030636;28;20055;-71
2022/07/07 00:04:18;;;;;;;3.22;2.40;;;;;;;;;;5030214;28;20025;-71
2022/07/07 00:06:43;;;;;;;3.53;2.38;;;;;;;;;;5029958;28;20029;-71
2022/07/07 00:09:09;;;;;;;3.10;2.45;;;;;;;;;;5030371;28;20029;-71
2022/07/07 00:11:34;;;;;;;2.85;2.58;;;;;;;;;;5012431;28;20091;-72
2022/07/07 00:13:59;;;;;;;3.88;2.97;;;;;;;;;;5030304;28;20056;-72
2022/07/07 00:16:25;;;;;;;4.90;3.25;;;;;;;;;;5012740;28;20033;-71
2022/07/07 00:18:51;;;;;;;2.63;2.42;;;;;;;;;;5012767;28;20026;-71
2022/07/07 00:21:16;;;;;;;3.70;2.75;;;;;;;;;;5030254;28;20038;-72
2022/07/07 00:23:42;;;;;;;7.43;3.85;;;;;;;;;;5030246;28;20061;-71
2022/07/07 00:26:07;;;;;;;5.13;2.78;;;;;;;;;;5030074;28;20037;-70
2022/07/07 00:28:33;;;;;;;5.53;2.80;;;;;;;;;;5030417;28;20068;-71
2022/07/07 00:30:58;;;;;;;5.65;3.63;;;;;;;;;;5012535;28;20030;-71
2022/07/07 00:33:24;;;;;;;4.07;3.53;;;;;;;;;;5013003;28;20017;-70
2022/07/07 00:35:50;;;;;;;5.40;3.33;;;;;;;;;;5033762;28;20555;-71
2022/07/07 00:38:15;;;;;;;4.47;3.25;;;;;;;;;;5033895;28;20113;-72
2022/07/07 00:40:40;;;;;;;4.93;3.65;;;;;;;;;;5033860;28;20071;-71
2022/07/07 00:43:06;;;;;;;5.97;3.13;;;;;;;;;;5034086;28;20075;-71
2022/07/07 00:45:31;;;;;;;7.35;2.67;;;;;;;;;;5016171;28;20681;-71
2022/07/07 00:47:57;;;;;;;4.28;3.00;;;;;;;;;;5033774;28;20036;-71
2022/07/07 00:50:23;;;;;;;4.32;2.78;;;;;;;;;;5033592;28;20475;-72
2022/07/07 00:52:48;;;;;;;4.00;2.67;;;;;;;;;;5033185;28;20030;-72
2022/07/07 00:55:14;;;;;;;4.03;3.05;;;;;;;;;;5033752;28;20029;-71
2022/07/07 00:57:39;;;;;;;4.35;2.80;;;;;;;;;;5033525;28;20033;-72
2022/07/07 01:00:07;;;;;;;6.18;3.25;;;;;;;;;;5033696;28;20108;-71
2022/07/07 01:02:32;;;;;;;7.00;3.33;;;;;;;;;;5033584;28;20024;-72
2022/07/07 01:04:59;;;;;;;4.65;3.35;;;;;;;;;;5015502;28;20037;-72
2022/07/07 01:07:24;;;;;;;4.72;2.88;;;;;;;;;;4999190;28;20084;-72
2022/07/07 01:09:50;;;;;;;3.90;2.95;;;;;;;;;;5033395;28;20030;-72
2022/07/07 01:12:15;;;;;;;2.42;2.22;;;;;;;;;;5033451;28;20033;-72
2022/07/07 01:14:41;;;;;;;5.53;2.55;;;;;;;;;;5033662;28;20068;-72
2022/07/07 01:17:06;;;;;;;3.13;2.38;;;;;;;;;;5033332;28;20096;-72
2022/07/07 01:19:31;;;;;;;2.70;2.22;;;;;;;;;;5033253;28;20029;-72
2022/07/07 01:21:58;;;;;;;3.45;2.80;;;;;;;;;;5033121;28;20018;-72
2022/07/07 01:24:25;;;;;;;5.53;2.67;;;;;;;;;;5015476;28;20372;-70
2022/07/07 01:27:03;;;;;;;3.35;2.67;;;;;;;;;;5033129;28;20132;-72
2022/07/07 01:29:32;;;;;;;2.65;2.45;;;;;;;;;;5015078;28;20510;-72
2022/07/07 01:31:58;;;;;;;2.75;2.20;;;;;;;;;;5032198;28;20110;-72
2022/07/07 01:34:24;;;;;;;2.70;2.50;;;;;;;;;;5033029;28;20113;-73
2022/07/07 01:36:49;;;;;;;2.45;2.22;;;;;;;;;;5032844;28;20483;-73
2022/07/07 01:39:14;;;;;;;2.95;2.17;;;;;;;;;;5033028;28;20415;-72
2022/07/07 01:41:40;;;;;;;3.50;2.28;;;;;;;;;;5033041;28;20021;-71
2022/07/07 01:44:05;;;;;;;3.92;2.50;;;;;;;;;;5032988;28;20025;-72
2022/07/07 01:46:31;;;;;;;2.63;2.35;;;;;;;;;;5032028;28;20379;-70
2022/07/07 01:48:56;;;;;;;3.10;2.35;;;;;;;;;;5032749;28;20121;-71
2022/07/07 01:51:21;;;;;;;3.20;2.28;;;;;;;;;;5032215;28;20033;-70
2022/07/07 01:53:47;;;;;;;2.55;2.35;;;;;;;;;;5032275;28;20109;-71
2022/07/07 01:56:12;;;;;;;5.03;2.30;;;;;;;;;;5032403;28;20029;-71
2022/07/07 01:58:38;;;;;;;2.88;2.58;;;;;;;;;;5032367;28;20044;-71
2022/07/07 02:01:03;;;;;;;4.78;2.80;;;;;;;;;;5014651;28;20028;-71
2022/07/07 02:03:28;;;;;;;2.90;2.67;;;;;;;;;;5032830;28;20084;-70
2022/07/07 02:05:54;;;;;;;4.60;2.17;;;;;;;;;;5032591;28;20021;-71
2022/07/07 02:08:19;;;;;;;2.50;2.30;;;;;;;;;;5032249;28;20029;-71
2022/07/07 02:13:28;;;;;;;6.25;2.58;;;;;;;;;;5032490;28;20041;-72
2022/07/07 02:15:54;;;;;;;3.10;2.47;;;;;;;;;;5032504;28;20021;-72
2022/07/07 02:18:20;;;;;;;2.58;2.42;;;;;;;;;;5032047;28;20033;-72
2022/07/07 02:20:45;;;;;;;2.60;2.40;;;;;;;;;;5032042;28;20013;-72
2022/07/07 02:23:11;;;;;;;3.17;2.05;;;;;;;;;;5031667;28;20369;-72
2022/07/07 02:25:36;;;;;;;2.70;2.53;;;;;;;;;;5031992;28;20377;-72
2022/07/07 02:28:02;;;;;;;2.78;2.22;;;;;;;;;;5014327;28;20057;-72
2022/07/07 02:30:27;;;;;;;2.15;2.05;;;;;;;;;;5032113;28;20025;-71
2022/07/07 02:32:52;;;;;;;2.28;2.13;;;;;;;;;;5031740;28;20073;-72
2022/07/07 02:35:18;;;;;;;3.83;2.15;;;;;;;;;;5031278;28;20163;-72
2022/07/07 02:37:43;;;;;;;2.33;2.13;;;;;;;;;;5013754;28;20398;-72
2022/07/07 02:40:09;;;;;;;3.50;2.40;;;;;;;;;;5031684;28;20026;-72
2022/07/07 02:42:34;;;;;;;4.68;2.95;;;;;;;;;;5013333;28;20030;-71
2022/07/07 02:45:00;;;;;;;5.15;2.40;;;;;;;;;;5013416;28;20021;-70
2022/07/07 02:47:25;;;;;;;2.65;2.40;;;;;;;;;;5012934;28;20128;-72
2022/07/07 02:49:51;;;;;;;2.75;2.22;;;;;;;;;;5031388;28;20036;-72
2022/07/07 02:52:16;;;;;;;2.33;2.00;;;;;;;;;;5031199;28;20076;-72
2022/07/07 02:54:41;;;;;;;4.82;1.83;;;;;;;;;;5013613;28;20030;-72
2022/07/07 02:57:07;;;;;;;2.97;2.40;;;;;;;;;;5029897;28;20428;-72
2022/07/07 02:59:32;;;;;;;3.17;2.47;;;;;;;;;;5013580;28;20032;-72
2022/07/07 03:01:58;;;;;;;2.63;2.42;;;;;;;;;;5031365;28;20383;-72
2022/07/07 03:04:23;;;;;;;2.33;2.13;;;;;;;;;;5013420;28;20087;-72
2022/07/07 03:06:48;;;;;;;2.33;2.17;;;;;;;;;;5031389;28;20029;-72
2022/07/07 03:09:14;;;;;;;2.95;2.42;;;;;;;;;;5031207;28;20022;-72
2022/07/07 03:11:39;;;;;;;5.95;2.13;;;;;;;;;;5013398;28;20094;-72
2022/07/07 03:14:04;;;;;;;3.42;2.42;;;;;;;;;;5031311;28;20403;-72
2022/07/07 03:16:30;;;;;;;4.82;2.75;;;;;;;;;;5013598;28;20060;-72
2022/07/07 03:18:55;;;;;;;2.50;2.25;;;;;;;;;;5030723;28;20030;-72
2022/07/07 03:21:21;;;;;;;2.53;2.30;;;;;;;;;;5031276;28;20025;-73
2022/07/07 03:23:46;;;;;;;3.22;2.13;;;;;;;;;;5031260;28;20025;-69
2022/07/07 03:26:12;;;;;;;3.63;2.33;;;;;;;;;;5030954;28;20053;-69
2022/07/07 03:28:37;;;;;;;4.30;2.40;;;;;;;;;;5030549;28;20030;-70
2022/07/07 03:31:02;;;;;;;6.05;2.47;;;;;;;;;;5013611;28;20483;-70
2022/07/07 03:33:28;;;;;;;2.72;2.47;;;;;;;;;;5013285;28;20033;-70
2022/07/07 03:35:54;;;;;;;2.55;2.13;;;;;;;;;;5030979;28;20032;-70
2022/07/07 03:38:20;;;;;;;5.25;2.53;;;;;;;;;;5030461;28;20025;-69
2022/07/07 03:40:45;;;;;;;4.15;2.38;;;;;;;;;;5030809;28;20037;-68
2022/07/07 03:43:10;;;;;;;3.88;2.47;;;;;;;;;;5030564;28;20022;-68
2022/07/07 03:45:36;;;;;;;3.30;2.70;;;;;;;;;;5030642;28;20026;-68
2022/07/07 03:48:01;;;;;;;4.53;3.03;;;;;;;;;;5030474;28;20032;-68
2022/07/07 03:50:27;;;;;;;7.97;2.85;;;;;;;;;;5012704;28;20088;-68
2022/07/07 03:52:52;;;;;;;4.60;2.58;;;;;;;;;;5030599;28;20504;-68
2022/07/07 03:55:17;;;;;;;5.20;2.85;;;;;;;;;;5030781;28;20125;-69
2022/07/07 03:57:43;;;;;;;5.82;3.20;;;;;;;;;;5030701;28;20051;-71
2022/07/07 04:00:09;;;;;;;3.85;2.55;;;;;;;;;;5033083;28;20109;-70
2022/07/07 04:02:35;;;;;;;3.17;2.70;;;;;;;;;;5033268;28;20017;-70
2022/07/07 04:05:00;;;;;;;4.70;3.03;;;;;;;;;;5032997;28;20468;-70
2022/07/07 04:07:26;;;;;;;3.78;2.75;;;;;;;;;;5011965;28;20037;-70
2022/07/07 04:09:51;;;;;;;7.45;2.95;;;;;;;;;;5015180;28;20120;-70
2022/07/07 04:12:16;;;;;;;4.57;3.15;;;;;;;;;;5033594;28;20025;-70
2022/07/07 04:14:42;;;;;;;5.88;3.90;;;;;;;;;;5034741;28;20029;-71
2022/07/07 04:17:07;;;;;;;5.15;3.65;;;;;;;;;;5036570;28;20151;-71
2022/07/07 04:19:34;;;;;;;6.13;3.22;;;;;;;;;;5036163;28;20037;-71
2022/07/07 04:21:59;;;;;;;5.05;3.40;;;;;;;;;;5001763;28;20019;-71
2022/07/07 04:24:25;;;;;;;3.42;3.00;;;;;;;;;;5035767;28;20056;-71
2022/07/07 04:26:50;;;;;;;4.72;3.55;;;;;;;;;;5017917;28;20084;-71
2022/07/07 04:29:16;;;;;;;5.65;3.25;;;;;;;;;;5035172;28;20391;-71
2022/07/07 04:31:43;;;;;;;4.53;3.05;;;;;;;;;;5035083;28;20096;-71
2022/07/07 04:34:09;;;;;;;5.43;3.10;;;;;;;;;;5034950;28;20040;-71
2022/07/07 04:36:34;;;;;;;8.75;3.25;;;;;;;;;;5035462;28;20022;-70
2022/07/07 04:39:00;;;;;;;5.35;3.08;;;;;;;;;;5035540;28;20029;-70
2022/07/07 04:41:25;;;;;;;3.33;3.03;;;;;;;;;;5017462;28;20337;-70
2022/07/07 04:43:51;;;;;;;4.15;3.30;;;;;;;;;;5018191;28;20026;-71
2022/07/07 04:46:16;;;;;;;6.88;3.72;;;;;;;;;;5035541;28;20049;-71
2022/07/07 04:48:41;;;;;;;7.75;3.30;;;;;;;;;;5034898;28;20029;-71
2022/07/07 04:51:07;;;;;;;5.18;3.95;;;;;;;;;;5017879;28;20503;-70
2022/07/07 04:53:32;;;;;;;5.22;4.30;;;;;;;;;;5018092;28;20112;-70
2022/07/07 04:55:57;;;;;;;7.38;4.93;;;;;;;;;;5018238;28;20458;-70
2022/07/07 04:58:23;;;;;;;8.10;4.68;;;;;;;;;;5035750;28;20037;-71
2022/07/07 05:00:48;;;;;;;8.70;5.13;;;;;;;;;;5035815;28;20021;-69
2022/07/07 05:03:14;;;;;;;6.38;4.90;;;;;;;;;;5035830;28;20042;-69
2022/07/07 05:05:39;;;;;;;5.57;4.70;;;;;;;;;;5035293;28;20048;-69
2022/07/07 05:08:05;;;;;;;5.53;4.53;;;;;;;;;;5034828;28;20476;-70
2022/07/07 05:10:30;;;;;;;5.30;4.80;;;;;;;;;;5035099;28;20030;-70
2022/07/07 05:12:56;;;;;;;5.32;4.82;;;;;;;;;;5017144;28;20177;-69
2022/07/07 05:15:21;;;;;;;5.78;5.13;;;;;;;;;;5034859;28;20021;-70
2022/07/07 05:17:47;;;;;;;9.93;5.50;;;;;;;;;;5034839;28;20075;-70
2022/07/07 05:20:12;;;;;;;5.55;4.97;;;;;;;;;;5015965;28;20017;-70
2022/07/07 05:22:38;;;;;;;7.78;5.85;;;;;;;;;;5034642;28;20044;-70
2022/07/07 05:25:03;;;;;;;7.18;5.95;;;;;;;;;;5034378;28;20018;-70
2022/07/07 05:27:29;;;;;;;4.85;4.38;;;;;;;;;;5034538;28;20045;-70
2022/07/07 05:29:55;;;;;;;5.30;4.50;;;;;;;;;;5016855;28;20661;-70
2022/07/07 05:32:21;;;;;;;7.00;5.30;;;;;;;;;;5016763;28;20506;-69
2022/07/07 05:34:46;;;;;;;7.20;5.10;;;;;;;;;;5034358;28;20026;-70
2022/07/07 05:37:11;;;;;;;6.35;5.40;;;;;;;;;;5034288;28;20038;-70
2022/07/07 05:39:37;;;;;;;6.55;5.20;;;;;;;;;;5034340;28;20013;-70
2022/07/07 05:42:02;;;;;;;6.78;6.07;;;;;;;;;;5016869;28;20026;-70
2022/07/07 05:44:27;;;;;;;8.25;5.72;;;;;;;;;;5016473;28;20376;-70
2022/07/07 05:46:53;;;;;;;6.90;5.10;;;;;;;;;;5034105;28;20052;-70
2022/07/07 05:49:19;;;;;;;6.85;5.38;;;;;;;;;;5034047;28;20107;-69
2022/07/07 05:51:45;;;;;;;6.15;4.57;;;;;;;;;;5034079;28;20424;-69
2022/07/07 05:54:10;;;;;;;6.25;4.65;;;;;;;;;;5034057;28;20101;-69
2022/07/07 05:56:35;;;;;;;5.60;4.32;;;;;;;;;;5033988;28;20029;-69
2022/07/07 05:59:01;;;;;;;5.72;4.75;;;;;;;;;;5033931;28;20068;-70
2022/07/07 06:01:26;;;;;;;8.25;4.68;;;;;;;;;;5016130;28;20072;-69
2022/07/07 06:03:51;;;;;;;10.43;4.75;;;;;;;;;;5033913;28;20021;-69
2022/07/07 06:06:17;;;;;;;5.15;4.10;;;;;;;;;;5016118;28;20061;-69
2022/07/07 06:08:42;;;;;;;5.93;4.07;;;;;;;;;;5033766;28;20020;-70
2022/07/07 06:11:07;;;;;;;6.05;3.95;;;;;;;;;;5033785;28;20088;-71
2022/07/07 06:13:33;;;;;;;5.47;3.40;;;;;;;;;;5033632;28;20025;-70
2022/07/07 06:15:58;;;;;;;5.03;3.63;;;;;;;;;;5033611;28;20495;-70
2022/07/07 06:18:24;;;;;;;3.88;3.35;;;;;;;;;;5033672;28;20061;-70
2022/07/07 06:20:49;;;;;;;4.25;3.30;;;;;;;;;;5034868;28;20060;-69
2022/07/07 06:23:14;;;;;;;7.43;4.00;;;;;;;;;;5034531;28;20013;-68
2022/07/07 06:25:40;;;;;;;4.32;3.53;;;;;;;;;;5034244;28;20491;-69
2022/07/07 06:28:05;;;;;;;4.32;3.58;;;;;;;;;;5016812;28;20032;-68
2022/07/07 06:30:31;;;;;;;6.70;3.35;;;;;;;;;;5034689;28;20041;-69
2022/07/07 06:32:56;;;;;;;5.45;3.28;;;;;;;;;;5034112;28;20534;-68
2022/07/07 06:35:24;;;;;;;4.65;3.35;;;;;;;;;;5034591;28;20033;-68
2022/07/07 06:37:50;;;;;;;4.35;3.17;;;;;;;;;;5034067;28;20013;-68
2022/07/07 06:40:15;;;;;;;2.60;2.40;;;;;;;;;;5034224;28;20025;-67
2022/07/07 06:42:41;;;;;;;5.47;2.67;;;;;;;;;;5034211;28;20096;-68
2022/07/07 06:45:11;;;;;;;3.03;1.98;;;;;;;;;;5016463;28;20104;-72
2022/07/07 06:47:38;;;;;;;5.70;2.45;;;;;;;;;;5034361;28;20034;-72
2022/07/07 06:50:04;;;;;;;3.90;2.65;;;;;;;;;;5034364;28;20095;-72
2022/07/07 06:52:29;;;;;;;2.63;2.42;;;;;;;;;;5034324;28;20583;-72
2022/07/07 06:54:55;;;;;;;3.72;2.83;;;;;;;;;;5034040;28;20533;-72
2022/07/07 06:57:20;;;;;;;5.18;2.47;;;;;;;;;;5034159;28;20124;-72
2022/07/07 06:59:45;;;;;;;3.38;2.22;;;;;;;;;;5016205;28;20017;-72
2022/07/07 07:02:11;;;;;;;3.70;2.35;;;;;;;;;;5033855;28;20030;-72
2022/07/07 07:04:36;;;;;;;3.42;2.47;;;;;;;;;;5034470;28;20010;-73
2022/07/07 07:07:02;;;;;;;3.03;2.22;;;;;;;;;;5033817;28;20471;-72
2022/07/07 07:09:28;;;;;;;5.43;2.00;;;;;;;;;;5033782;28;20030;-71
2022/07/07 07:11:54;;;;;;;3.72;1.83;;;;;;;;;;5034042;28;20041;-73
2022/07/07 07:14:20;;;;;;;1.92;1.70;;;;;;;;;;5033688;28;20029;-73
2022/07/07 07:16:45;;;;;;;1.80;1.70;;;;;;;;;;5033928;28;20396;-73
2022/07/07 07:19:11;;;;;;;5.25;1.55;;;;;;;;;;5033702;28;20024;-72
2022/07/07 07:21:37;;;;;;;1.88;1.60;;;;;;;;;;5015944;28;20033;-72
2022/07/07 07:24:04;;;;;;;3.45;1.73;;;;;;;;;;5033620;28;20156;-72
2022/07/07 07:26:31;;;;;;;1.40;1.30;;;;;;;;;;5033455;28;20049;-72
2022/07/07 07:28:57;;;;;;;2.55;1.13;;;;;;;;;;5033824;28;20480;-72
2022/07/07 07:31:22;;;;;;;2.25;1.20;;;;;;;;;;5033543;28;20035;-72
2022/07/07 07:33:47;;;;;;;1.75;1.38;;;;;;;;;;5033511;28;20030;-72
2022/07/07 07:36:13;;;;;;;3.38;1.50;;;;;;;;;;5033486;28;20113;-72
2022/07/07 07:38:39;;;;;;;2.47;1.67;;;;;;;;;;5033704;28;20030;-72
2022/07/07 07:41:06;;;;;;;1.88;1.60;;;;;;;;;;5015420;28;20054;-71
2022/07/07 07:43:31;;;;;;;6.25;1.73;;;;;;;;;;5034340;28;20387;-72
2022/07/07 07:45:56;;;;;;;2.03;1.63;;;;;;;;;;5036843;28;20021;-72
2022/07/07 07:48:22;;;;;;;2.20;1.58;;;;;;;;;;5036444;28;20024;-72
2022/07/07 07:50:47;;;;;;;2.03;1.60;;;;;;;;;;5036394;28;20464;-73
2022/07/07 07:53:12;;;;;;;1.70;1.60;;;;;;;;;;5036284;28;20025;-72
2022/07/07 07:55:39;;;;;;;3.22;1.63;;;;;;;;;;5018673;28;20044;-72
2022/07/07 07:58:04;;;;;;;2.25;1.85;;;;;;;;;;5036200;28;20056;-71
2022/07/07 08:00:30;;;;;;;4.72;2.30;;;;;;;;;;5036189;28;20053;-73
2022/07/07 08:02:55;;;;;;;4.53;2.78;;;;;;;;;;5036423;28;20091;-72
2022/07/07 08:05:21;;;;;;;7.15;3.20;;;;;;;;;;5036069;28;20378;-72
2022/07/07 08:07:46;;;;;;;6.80;3.08;;;;;;;;;;5036029;28;20017;-72
2022/07/07 08:10:13;;;;;;;4.22;2.72;;;;;;;;;;5035963;28;20031;-72
2022/07/07 08:12:38;;;;;;;5.25;2.97;;;;;;;;;;5035970;28;20052;-72
2022/07/07 08:15:04;;;;;;;5.10;3.30;;;;;;;;;;5035866;28;20120;-72
2022/07/07 08:17:30;;;;;;;5.25;3.22;;;;;;;;;;5035482;28;20076;-72
2022/07/07 08:19:55;;;;;;;6.00;4.13;;;;;;;;;;5035500;28;20452;-72
2022/07/07 08:22:20;;;;;;;5.30;3.45;;;;;;;;;;5034252;28;20017;-72
2022/07/07 08:24:46;;;;;;;4.68;2.80;;;;;;;;;;5018071;28;20152;-72
2022/07/07 08:27:11;;;;;;;5.93;3.28;;;;;;;;;;5017496;28;20057;-72
2022/07/07 08:29:38;;;;;;;6.60;3.03;;;;;;;;;;5017741;28;20052;-72
2022/07/07 08:32:10;;;;;;;6.28;3.28;;;;;;;;;;5017668;28;20464;-72
2022/07/07 08:34:36;;;;;;;8.07;4.40;;;;;;;;;;5035257;28;20088;-72
2022/07/07 08:37:01;;;;;;;5.20;3.47;;;;;;;;;;5035266;28;20021;-72
2022/07/07 08:39:27;;;;;;;4.75;2.88;;;;;;;;;;5035489;28;20033;-72
2022/07/07 08:41:52;;;;;;;2.22;2.03;;;;;;;;;;5035019;28;20029;-72
2022/07/07 08:44:18;;;;;;;3.15;1.95;;;;;;;;;;5034926;28;20025;-72
2022/07/07 08:46:43;;;;;;;7.85;4.07;;;;;;;;;;5034999;28;20013;-72
2022/07/07 08:49:09;;;;;;;7.70;3.55;;;;;;;;;;5034782;28;20064;-72
2022/07/07 08:51:39;;;;;;;5.45;3.13;;;;;;;;;;5035013;28;20433;-72
2022/07/07 08:54:05;;;;;;;2.30;2.10;;;;;;;;;;5017377;28;20056;-72
2022/07/07 08:56:31;;;;;;;3.15;2.10;;;;;;;;;;5035154;28;20420;-72
2022/07/07 08:58:57;;;;;;;2.80;2.05;;;;;;;;;;5034840;28;20057;-72
2022/07/07 09:01:23;;;;;;;3.45;2.03;;;;;;;;;;5034607;28;20376;-72
2022/07/07 09:03:48;;;;;;;3.20;1.80;;;;;;;;;;5034648;28;20040;-72
2022/07/07 09:06:14;;;;;;;2.85;1.98;;;;;;;;;;5034475;28;20009;-72
2022/07/07 09:08:40;;;;;;;2.88;2.17;;;;;;;;;;5035044;28;20137;-68
2022/07/07 09:11:09;;;;;;;3.50;2.10;;;;;;;;;;5034603;28;20080;-68
2022/07/07 09:13:35;;;;;;;3.90;2.30;;;;;;;;;;5034551;28;20037;-68
2022/07/07 09:16:02;;;;;;;4.15;2.20;;;;;;;;;;5034178;28;20038;-68
2022/07/07 09:18:31;;;;;;;3.05;1.80;;;;;;;;;;5016542;28;20029;-68
2022/07/07 09:20:56;;;;;;;4.32;2.13;;;;;;;;;;5034816;28;20096;-68
2022/07/07 09:23:22;;;;;;;3.63;2.83;;;;;;;;;;5034240;28;20116;-68
2022/07/07 09:25:47;;;;;;;7.25;3.05;;;;;;;;;;5016019;28;20054;-67
2022/07/07 09:28:13;;;;;;;2.95;2.65;;;;;;;;;;5034377;28;20029;-68
2022/07/07 09:30:43;;;;;;;4.20;2.92;;;;;;;;;;5033789;28;20069;-68
2022/07/07 09:33:09;;;;;;;;;;;;;;;;;;5034357;28;20033;-68
2022/07/07 09:38:23;;;;;;;3.10;2.13;;;;;;;;;;5034059;28;20387;-68
2022/07/07 09:41:03;;;;;;;7.40;3.30;;;;;;;;;;5034298;28;20051;-68
2022/07/07 09:43:45;;;;;;;4.03;2.20;;;;;;;;;;5033872;28;20021;-72
2022/07/07 09:46:12;;;;;;;6.28;1.98;;;;;;;;;;5016221;28;20034;-72
2022/07/07 09:48:38;;;;;;;2.42;2.22;;;;;;;;;;5033730;28;20104;-72
2022/07/07 09:51:15;;;;;;;6.68;2.95;;;;;;;;;;5015487;28;20450;-72
2022/07/07 09:53:54;;;;;;;2.83;2.05;;;;;;;;;;5033938;28;20403;-72
2022/07/07 09:56:21;;;;;;;3.88;2.30;;;;;;;;;;5034253;28;20029;-72
2022/07/07 09:58:47;;;;;;;3.90;2.47;;;;;;;;;;5016006;28;20113;-72
2022/07/07 10:01:13;;;;;;;5.28;2.95;;;;;;;;;;5033920;28;20116;-72
2022/07/07 10:03:39;;;;;;;4.32;3.22;;;;;;;;;;5033813;28;20104;-72
2022/07/07 10:06:05;;;;;;;3.67;2.60;;;;;;;;;;5033041;28;20026;-72
2022/07/07 10:08:31;;;;;;;4.72;2.50;;;;;;;;;;5033307;28;20033;-72
2022/07/07 10:10:57;;;;;;;4.82;2.67;;;;;;;;;;5033356;28;20042;-72
2022/07/07 10:13:23;;;;;;;4.13;2.22;;;;;;;;;;5033330;28;20140;-72
2022/07/07 10:15:48;;;;;;;3.15;2.13;;;;;;;;;;5033576;28;20029;-72
2022/07/07 10:18:15;;;;;;;3.45;3.15;;;;;;;;;;5015816;28;20024;-72
2022/07/07 10:20:41;;;;;;;5.40;3.22;;;;;;;;;;5033490;28;20034;-72
2022/07/07 10:23:06;;;;;;;2.63;2.40;;;;;;;;;;5033798;28;20383;-68
2022/07/07 10:25:34;;;;;;;2.83;2.50;;;;;;;;;;5033039;28;20042;-67
2022/07/07 10:27:59;;;;;;;3.83;2.63;;;;;;;;;;5033073;28;20458;-67
2022/07/07 10:30:29;;;;;;;3.55;2.90;;;;;;;;;;5032805;28;20159;-68
2022/07/07 10:32:55;;;;;;;4.35;2.80;;;;;;;;;;5032995;28;20028;-68
2022/07/07 10:35:23;;;;;;;3.03;2.47;;;;;;;;;;5033002;28;20375;-67
2022/07/07 10:37:49;;;;;;;5.00;2.15;;;;;;;;;;5015341;28;20045;-67
2022/07/07 10:40:19;;;;;;;4.95;2.35;;;;;;;;;;5015406;28;20110;-67
2022/07/07 10:42:56;;;;;;;4.60;2.23;;;;;;;;;;5033019;28;20034;-67
2022/07/07 10:45:22;;;;;;;5.32;2.28;;;;;;;;;;5032815;28;20053;-68
2022/07/07 10:47:47;;;;;;;4.90;2.22;;;;;;;;;;5033065;28;20018;-68
2022/07/07 10:50:24;;;;;;;3.80;2.28;;;;;;;;;;5033290;28;20414;-68
2022/07/07 10:52:50;;;;;;;5.25;2.50;;;;;;;;;;5032972;28;20068;-68
2022/07/07 10:55:16;;;;;;;2.30;2.10;;;;;;;;;;5032870;28;20053;-67
2022/07/07 10:57:45;;;;;;;3.60;1.95;;;;;;;;;;5015253;28;20475;-68
2022/07/07 11:00:15;;;;;;;3.35;2.00;;;;;;;;;;5032894;28;20055;-68
2022/07/07 11:02:42;;;;;;;2.60;2.40;;;;;;;;;;5032815;28;20380;-67
2022/07/07 11:05:14;;;;;;;2.65;1.77;;;;;;;;;;5032764;28;20101;-67
2022/07/07 11:07:59;;;;;;;2.03;1.83;;;;;;;;;;5032719;28;20046;-72
2022/07/07 11:10:48;;;;;;;2.22;1.88;;;;;;;;;;5001286;28;20400;-72
2022/07/07 11:13:21;;;;;;;3.90;2.00;;;;;;;;;;5014938;28;20029;-72
2022/07/07 11:15:51;;;;;;;4.20;1.90;;;;;;;;;;5014942;28;20056;-72
2022/07/07 11:18:20;;;;;;;2.22;1.80;;;;;;;;;;5031693;28;20115;-72
2022/07/07 11:21:02;;;;;;;3.20;2.05;;;;;;;;;;5032594;28;20009;-72
2022/07/07 11:23:42;;;;;;;5.32;1.98;;;;;;;;;;5032613;28;20384;-72
2022/07/07 11:26:07;;;;;;;4.43;2.10;;;;;;;;;;5032254;28;20049;-72
2022/07/07 11:28:35;;;;;;;2.47;2.20;;;;;;;;;;5014732;28;20500;-72
2022/07/07 11:31:03;;;;;;;2.25;2.05;;;;;;;;;;5032375;28;20507;-72
2022/07/07 11:33:29;;;;;;;2.33;1.83;;;;;;;;;;5032409;28;20065;-72
2022/07/07 11:35:54;;;;;;;4.35;2.17;;;;;;;;;;5014791;28;20506;-72
2022/07/07 11:38:24;;;;;;;4.25;1.90;;;;;;;;;;5032288;28;20100;-72
2022/07/07 11:40:49;;;;;;;3.22;1.80;;;;;;;;;;5014784;28;20064;-72
2022/07/07 11:43:24;;;;;;;3.67;1.90;;;;;;;;;;5032333;28;20017;-72
2022/07/07 11:45:50;;;;;;;3.50;2.13;;;;;;;;;;5032370;28;20029;-72
2022/07/07 11:48:15;;;;;;;2.47;1.70;;;;;;;;;;5032649;28;20029;-72
2022/07/07 11:50:41;;;;;;;2.47;2.00;;;;;;;;;;5032258;28;20041;-72
2022/07/07 11:53:06;;;;;;;2.83;2.03;;;;;;;;;;5032336;28;20028;-72
2022/07/07 11:55:33;;;;;;;4.30;2.05;;;;;;;;;;5032220;28;20033;-72
2022/07/07 11:58:02;;;;;;;2.95;2.15;;;;;;;;;;5032175;28;20021;-72
2022/07/07 12:00:31;;;;;;;4.80;2.30;;;;;;;;;;5032229;28;20029;-72
2022/07/07 12:02:57;;;;;;;3.63;1.92;;;;;;;;;;5032234;28;20342;-72
2022/07/07 12:05:24;;;;;;;2.38;1.92;;;;;;;;;;5032218;28;20383;-72
2022/07/07 12:07:52;;;;;;;2.95;2.00;;;;;;;;;;5014554;28;20456;-72
2022/07/07 12:10:26;;;;;;;3.42;2.22;;;;;;;;;;5032090;28;20411;-72
2022/07/07 12:12:58;;;;;;;5.45;2.85;;;;;;;;;;5032583;28;20026;-71
2022/07/07 12:15:34;;;;;;;3.65;2.20;;;;;;;;;;5033454;28;20035;-71
2022/07/07 12:18:01;;;;;;;1.85;1.75;;;;;;;;;;5033025;28;20029;-71
2022/07/07 12:20:27;;;;;;;2.25;1.80;;;;;;;;;;5032468;28;20477;-71
2022/07/07 12:22:53;;;;;;;4.57;1.80;;;;;;;;;;5032943;28;20124;-71
2022/07/07 12:25:19;;;;;;;2.05;1.90;;;;;;;;;;5033384;28;20046;-71
2022/07/07 12:27:55;;;;;;;4.80;2.45;;;;;;;;;;5007664;23;20495;-66
2022/07/07 12:30:21;;;;;;;2.78;2.55;;;;;;;;;;5015955;28;20032;-66
2022/07/07 12:32:47;;;;;;;2.67;2.20;;;;;;;;;;5016920;28;20097;-66
2022/07/07 12:35:51;;;;;;;2.05;1.60;;;;;;;;;;5016837;28;20517;-66
2022/07/07 12:38:33;;;;;;;3.30;2.10;;;;;;;;;;4956550;29;20126;-66
2022/07/07 12:40:59;;;;;;;2.58;2.17;;;;;;;;;;4956647;29;20580;-67
2022/07/07 12:43:30;;;;;;;2.65;2.03;;;;;;;;;;4991033;28;20116;-66
2022/07/07 12:46:03;;;;;;;3.05;2.67;;;;;;;;;;4999045;28;20488;-66
2022/07/07 12:48:29;;;;;;;3.00;2.75;;;;;;;;;;5016575;28;20029;-66
2022/07/07 12:51:02;;;;;;;2.95;2.40;;;;;;;;;;5016828;28;20022;-67
2022/07/07 12:53:27;;;;;;;2.95;2.65;;;;;;;;;;4998925;28;20431;-67
2022/07/07 12:55:52;;;;;;;4.18;2.63;;;;;;;;;;5016509;28;20029;-67
2022/07/07 12:58:18;;;;;;;2.75;2.55;;;;;;;;;;5016356;28;20034;-66
2022/07/07 13:01:00;;;;;;;5.93;3.63;;;;;;;;;;5016674;28;20053;-67
2022/07/07 13:03:26;;;;;;;4.10;2.95;;;;;;;;;;4998234;28;20437;-67
2022/07/07 13:05:51;;;;;;;4.00;2.53;;;;;;;;;;5015330;28;20102;-67
2022/07/07 13:08:16;;;;;;;2.50;2.30;;;;;;;;;;5015147;28;20057;-67
2022/07/07 13:10:42;;;;;;;6.03;2.75;;;;;;;;;;5015072;28;20369;-67
2022/07/07 13:13:08;;;;;;;4.60;2.38;;;;;;;;;;5015371;28;20037;-67
2022/07/07 13:15:33;;;;;;;5.00;2.25;;;;;;;;;;5015040;28;20077;-68
2022/07/07 13:17:58;;;;;;;2.40;2.20;;;;;;;;;;5013795;28;20037;-67
2022/07/07 13:20:24;;;;;;;2.53;2.35;;;;;;;;;;4997320;28;20078;-67
2022/07/07 13:22:49;;;;;;;3.83;2.38;;;;;;;;;;5014903;28;20022;-67
2022/07/07 13:25:15;;;;;;;4.40;2.35;;;;;;;;;;5014862;28;20018;-67
2022/07/07 13:27:40;;;;;;;3.80;2.67;;;;;;;;;;4996361;28;20025;-67
2022/07/07 13:30:06;;;;;;;3.05;2.78;;;;;;;;;;4977855;28;20377;-67
2022/07/07 13:32:32;;;;;;;4.13;2.53;;;;;;;;;;4995416;28;20231;-67
2022/07/07 13:34:57;;;;;;;3.20;2.90;;;;;;;;;;4995187;28;20041;-67
2022/07/07 13:37:22;;;;;;;4.88;2.70;;;;;;;;;;4994933;28;20053;-67
2022/07/07 13:39:48;;;;;;;7.05;3.10;;;;;;;;;;4995003;28;20124;-68
2022/07/07 13:42:13;;;;;;;6.60;3.22;;;;;;;;;;4994707;28;20033;-72
2022/07/07 13:44:41;;;;;;;5.20;2.80;;;;;;;;;;4995941;28;20026;-72
2022/07/07 13:47:06;;;;;;;4.65;2.42;;;;;;;;;;4995957;28;20010;-72
2022/07/07 13:49:32;;;;;;;2.65;2.30;;;;;;;;;;4978329;28;20034;-72
2022/07/07 13:51:59;;;;;;;3.00;2.10;;;;;;;;;;4995591;28;20037;-72
2022/07/07 13:54:27;;;;;;;5.78;2.75;;;;;;;;;;4995782;28;20078;-73
2022/07/07 13:56:52;;;;;;;3.05;2.75;;;;;;;;;;4995411;28;20015;-72
2022/07/07 13:59:17;;;;;;;4.75;2.53;;;;;;;;;;4995535;28;20358;-72
2022/07/07 14:01:43;;;;;;;3.47;2.53;;;;;;;;;;4995288;28;20015;-72
2022/07/07 14:04:08;;;;;;;5.65;2.55;;;;;;;;;;4995020;28;20097;-72
2022/07/07 14:06:34;;;;;;;3.72;2.58;;;;;;;;;;4995172;28;20026;-72
2022/07/07 14:08:59;;;;;;;2.78;2.20;;;;;;;;;;4995016;28;20030;-72
2022/07/07 14:11:25;;;;;;;2.60;2.40;;;;;;;;;;4994651;28;20100;-72
2022/07/07 14:13:50;;;;;;;2.53;2.33;;;;;;;;;;4993443;28;20022;-71
2022/07/07 14:16:15;;;;;;;4.95;2.40;;;;;;;;;;4995094;28;20033;-71
2022/07/07 14:18:41;;;;;;;2.28;2.05;;;;;;;;;;4994766;28;20038;-71
2022/07/07 14:21:06;;;;;;;2.78;2.58;;;;;;;;;;4994342;28;20025;-71
2022/07/07 14:23:32;;;;;;;7.40;2.20;;;;;;;;;;4994409;28;20025;-71
2022/07/07 14:25:57;;;;;;;2.42;1.88;;;;;;;;;;4993246;28;20104;-71
2022/07/07 14:28:23;;;;;;;2.88;2.20;;;;;;;;;;4982095;28;20372;-71
2022/07/07 14:30:49;;;;;;;1.80;1.70;;;;;;;;;;5013134;28;20037;-71
2022/07/07 14:33:15;;;;;;;2.65;1.80;;;;;;;;;;5013862;28;20464;-71
2022/07/07 14:35:40;;;;;;;1.50;1.40;;;;;;;;;;5014250;28;20084;-71
2022/07/07 14:38:06;;;;;;;1.88;1.63;;;;;;;;;;5014264;28;20475;-71
2022/07/07 14:40:31;;;;;;;1.25;1.23;;;;;;;;;;5014759;28;20044;-71
2022/07/07 14:42:57;;;;;;;2.25;1.70;;;;;;;;;;4996835;28;20021;-71
2022/07/07 14:45:22;;;;;;;1.92;1.80;;;;;;;;;;5014495;28;20026;-71